< < Back
Terminal Aerodrome Forecast


Current Version              Previous Versions:   1  2  3  4  5  6  7  8  9  

Terminal Aerodrome Forecast

151
FTUS42 KGSP 281100
TAFCLT
TAF
KCLT 281136Z 2812/2912 29003KT P6SM SKC
     FM282000 24004KT P6SM SKC=



Latest METAR

708
SAUS70 KWBC 281500 RRD
MTRCLT
METAR KCLT 281452Z 00000KT 10SM CLR 28/17 A3005 RMK AO2 SLP168 T02830167
51002


USA.gov is the U.S. government's official web portal to all federal, state and local government web resources and services.